sensor_id;sensor_type;location;lat;lon;timestamp;P1;durP1;ratioP1;P2;durP2;ratioP2
75212;SDS011;63798;61.778;34.352;2022-10-26T00:01:29;1.13;;;0.60;;
75212;SDS011;63798;61.778;34.352;2022-10-26T00:03:58;1.65;;;0.60;;
75212;SDS011;63798;61.778;34.352;2022-10-26T00:06:25;1.20;;;0.50;;
75212;SDS011;63798;61.778;34.352;2022-10-26T00:08:54;0.80;;;0.55;;
75212;SDS011;63798;61.778;34.352;2022-10-26T00:11:21;1.70;;;0.70;;
75212;SDS011;63798;61.778;34.352;2022-10-26T00:13:48;1.60;;;0.68;;
75212;SDS011;63798;61.778;34.352;2022-10-26T00:16:16;1.25;;;0.50;;
75212;SDS011;63798;61.778;34.352;2022-10-26T00:18:43;1.48;;;0.80;;
75212;SDS011;63798;61.778;34.352;2022-10-26T00:21:10;1.27;;;0.70;;
75212;SDS011;63798;61.778;34.352;2022-10-26T00:23:37;2.15;;;0.82;;
75212;SDS011;63798;61.778;34.352;2022-10-26T00:26:05;1.23;;;0.60;;
75212;SDS011;63798;61.778;34.352;2022-10-26T00:28:32;1.00;;;0.60;;
75212;SDS011;63798;61.778;34.352;2022-10-26T00:30:59;0.98;;;0.57;;
75212;SDS011;63798;61.778;34.352;2022-10-26T00:33:26;0.93;;;0.52;;
75212;SDS011;63798;61.778;34.352;2022-10-26T00:35:54;1.05;;;0.60;;
75212;SDS011;63798;61.778;34.352;2022-10-26T00:38:21;1.77;;;0.60;;
75212;SDS011;63798;61.778;34.352;2022-10-26T00:40:48;1.45;;;0.60;;
75212;SDS011;63798;61.778;34.352;2022-10-26T00:45:57;1.33;;;0.50;;
75212;SDS011;63798;61.778;34.352;2022-10-26T00:48:25;1.40;;;0.50;;
75212;SDS011;63798;61.778;34.352;2022-10-26T00:50:53;0.45;;;0.40;;
75212;SDS011;63798;61.778;34.352;2022-10-26T00:53:21;1.02;;;0.55;;
75212;SDS011;63798;61.778;34.352;2022-10-26T00:55:49;0.75;;;0.57;;
75212;SDS011;63798;61.778;34.352;2022-10-26T00:58:16;1.25;;;0.47;;
75212;SDS011;63798;61.778;34.352;2022-10-26T01:00:43;0.55;;;0.50;;
75212;SDS011;63798;61.778;34.352;2022-10-26T01:03:11;0.60;;;0.43;;
75212;SDS011;63798;61.778;34.352;2022-10-26T01:05:39;1.20;;;0.60;;
75212;SDS011;63798;61.778;34.352;2022-10-26T01:08:06;1.00;;;0.43;;
75212;SDS011;63798;61.778;34.352;2022-10-26T01:10:33;1.42;;;0.50;;
75212;SDS011;63798;61.778;34.352;2022-10-26T01:13:01;1.52;;;0.60;;
75212;SDS011;63798;61.778;34.352;2022-10-26T01:15:29;1.48;;;0.50;;
75212;SDS011;63798;61.778;34.352;2022-10-26T01:18:00;2.05;;;0.50;;
75212;SDS011;63798;61.778;34.352;2022-10-26T01:20:41;0.50;;;0.47;;
75212;SDS011;63798;61.778;34.352;2022-10-26T01:23:12;0.50;;;0.40;;
75212;SDS011;63798;61.778;34.352;2022-10-26T01:25:46;1.20;;;0.45;;
75212;SDS011;63798;61.778;34.352;2022-10-26T01:28:18;0.77;;;0.45;;
75212;SDS011;63798;61.778;34.352;2022-10-26T01:30:47;0.95;;;0.43;;
75212;SDS011;63798;61.778;34.352;2022-10-26T01:33:16;0.98;;;0.50;;
75212;SDS011;63798;61.778;34.352;2022-10-26T01:35:48;1.17;;;0.60;;
75212;SDS011;63798;61.778;34.352;2022-10-26T01:38:16;1.77;;;0.63;;
75212;SDS011;63798;61.778;34.352;2022-10-26T01:40:48;0.63;;;0.40;;
75212;SDS011;63798;61.778;34.352;2022-10-26T01:43:17;0.50;;;0.40;;
75212;SDS011;63798;61.778;34.352;2022-10-26T01:45:46;1.02;;;0.50;;
75212;SDS011;63798;61.778;34.352;2022-10-26T01:48:15;1.63;;;0.40;;
75212;SDS011;63798;61.778;34.352;2022-10-26T01:50:44;0.40;;;0.40;;
75212;SDS011;63798;61.778;34.352;2022-10-26T01:53:12;1.20;;;0.40;;
75212;SDS011;63798;61.778;34.352;2022-10-26T01:55:43;1.63;;;0.40;;
75212;SDS011;63798;61.778;34.352;2022-10-26T01:58:12;0.70;;;0.50;;
75212;SDS011;63798;61.778;34.352;2022-10-26T02:00:43;0.55;;;0.40;;
75212;SDS011;63798;61.778;34.352;2022-10-26T02:03:12;0.98;;;0.50;;
75212;SDS011;63798;61.778;34.352;2022-10-26T02:05:45;2.38;;;0.40;;
75212;SDS011;63798;61.778;34.352;2022-10-26T02:08:19;0.40;;;0.40;;
75212;SDS011;63798;61.778;34.352;2022-10-26T02:10:50;1.52;;;0.57;;
75212;SDS011;63798;61.778;34.352;2022-10-26T02:13:25;0.95;;;0.40;;
75212;SDS011;63798;61.778;34.352;2022-10-26T02:15:55;0.68;;;0.40;;
75212;SDS011;63798;61.778;34.352;2022-10-26T02:18:27;0.90;;;0.40;;
75212;SDS011;63798;61.778;34.352;2022-10-26T02:20:57;1.52;;;0.40;;
75212;SDS011;63798;61.778;34.352;2022-10-26T02:23:24;1.85;;;0.40;;
75212;SDS011;63798;61.778;34.352;2022-10-26T02:25:53;0.70;;;0.57;;
75212;SDS011;63798;61.778;34.352;2022-10-26T02:28:23;0.70;;;0.30;;
75212;SDS011;63798;61.778;34.352;2022-10-26T02:30:51;0.75;;;0.28;;
75212;SDS011;63798;61.778;34.352;2022-10-26T02:33:20;0.55;;;0.40;;
75212;SDS011;63798;61.778;34.352;2022-10-26T02:35:49;0.77;;;0.32;;
75212;SDS011;63798;61.778;34.352;2022-10-26T02:38:16;0.85;;;0.40;;
75212;SDS011;63798;61.778;34.352;2022-10-26T02:40:45;0.40;;;0.40;;
75212;SDS011;63798;61.778;34.352;2022-10-26T02:43:12;1.20;;;0.60;;
75212;SDS011;63798;61.778;34.352;2022-10-26T02:45:42;1.98;;;1.55;;
75212;SDS011;63798;61.778;34.352;2022-10-26T02:48:09;2.70;;;1.90;;
75212;SDS011;63798;61.778;34.352;2022-10-26T02:50:37;2.75;;;1.98;;
75212;SDS011;63798;61.778;34.352;2022-10-26T02:53:09;3.35;;;2.30;;
75212;SDS011;63798;61.778;34.352;2022-10-26T02:55:42;2.97;;;2.30;;
75212;SDS011;63798;61.778;34.352;2022-10-26T02:58:13;1.67;;;1.48;;
75212;SDS011;63798;61.778;34.352;2022-10-26T03:00:40;3.08;;;1.90;;
75212;SDS011;63798;61.778;34.352;2022-10-26T03:03:08;3.38;;;2.13;;
75212;SDS011;63798;61.778;34.352;2022-10-26T03:05:34;2.17;;;1.90;;
75212;SDS011;63798;61.778;34.352;2022-10-26T03:08:02;2.90;;;1.77;;
75212;SDS011;63798;61.778;34.352;2022-10-26T03:10:30;2.05;;;1.75;;
75212;SDS011;63798;61.778;34.352;2022-10-26T03:12:58;2.80;;;1.63;;
75212;SDS011;63798;61.778;34.352;2022-10-26T03:15:24;2.80;;;1.77;;
75212;SDS011;63798;61.778;34.352;2022-10-26T03:17:51;2.22;;;1.60;;
75212;SDS011;63798;61.778;34.352;2022-10-26T03:20:18;1.92;;;1.42;;
75212;SDS011;63798;61.778;34.352;2022-10-26T03:22:45;1.88;;;1.38;;
75212;SDS011;63798;61.778;34.352;2022-10-26T03:25:12;2.22;;;1.88;;
75212;SDS011;63798;61.778;34.352;2022-10-26T03:27:41;2.95;;;1.95;;
75212;SDS011;63798;61.778;34.352;2022-10-26T03:30:08;3.25;;;2.20;;
75212;SDS011;63798;61.778;34.352;2022-10-26T03:32:34;2.85;;;1.95;;
75212;SDS011;63798;61.778;34.352;2022-10-26T03:35:01;2.67;;;1.80;;
75212;SDS011;63798;61.778;34.352;2022-10-26T03:37:28;4.43;;;1.83;;
75212;SDS011;63798;61.778;34.352;2022-10-26T03:39:58;3.47;;;1.50;;
75212;SDS011;63798;61.778;34.352;2022-10-26T03:42:25;2.28;;;1.35;;
75212;SDS011;63798;61.778;34.352;2022-10-26T03:44:54;1.98;;;1.45;;
75212;SDS011;63798;61.778;34.352;2022-10-26T03:47:21;1.95;;;1.23;;
75212;SDS011;63798;61.778;34.352;2022-10-26T03:49:48;3.35;;;1.50;;
75212;SDS011;63798;61.778;34.352;2022-10-26T03:52:14;4.38;;;1.85;;
75212;SDS011;63798;61.778;34.352;2022-10-26T03:54:41;3.85;;;1.48;;
75212;SDS011;63798;61.778;34.352;2022-10-26T03:57:09;4.88;;;1.70;;
75212;SDS011;63798;61.778;34.352;2022-10-26T03:59:37;4.10;;;1.80;;
75212;SDS011;63798;61.778;34.352;2022-10-26T04:02:07;4.38;;;1.70;;
75212;SDS011;63798;61.778;34.352;2022-10-26T04:04:36;3.63;;;1.70;;
75212;SDS011;63798;61.778;34.352;2022-10-26T04:07:03;4.00;;;1.83;;
75212;SDS011;63798;61.778;34.352;2022-10-26T04:09:31;3.33;;;1.73;;
75212;SDS011;63798;61.778;34.352;2022-10-26T04:12:01;3.92;;;1.40;;
75212;SDS011;63798;61.778;34.352;2022-10-26T04:14:28;3.88;;;1.63;;
75212;SDS011;63798;61.778;34.352;2022-10-26T04:16:54;2.70;;;1.30;;
75212;SDS011;63798;61.778;34.352;2022-10-26T04:19:22;3.83;;;1.75;;
75212;SDS011;63798;61.778;34.352;2022-10-26T04:21:50;2.70;;;1.48;;
75212;SDS011;63798;61.778;34.352;2022-10-26T04:24:17;3.03;;;1.30;;
75212;SDS011;63798;61.778;34.352;2022-10-26T04:26:45;1.98;;;1.38;;
75212;SDS011;63798;61.778;34.352;2022-10-26T04:29:13;2.97;;;1.25;;
75212;SDS011;63798;61.778;34.352;2022-10-26T04:31:46;2.22;;;1.50;;
75212;SDS011;63798;61.778;34.352;2022-10-26T04:34:23;3.55;;;1.38;;
75212;SDS011;63798;61.778;34.352;2022-10-26T04:36:51;3.67;;;1.95;;
75212;SDS011;63798;61.778;34.352;2022-10-26T04:39:29;2.97;;;2.20;;
75212;SDS011;63798;61.778;34.352;2022-10-26T04:44:24;2.28;;;2.00;;
75212;SDS011;63798;61.778;34.352;2022-10-26T04:46:51;3.08;;;2.08;;
75212;SDS011;63798;61.778;34.352;2022-10-26T04:49:17;4.75;;;2.92;;
75212;SDS011;63798;61.778;34.352;2022-10-26T04:51:45;4.20;;;2.95;;
75212;SDS011;63798;61.778;34.352;2022-10-26T04:54:26;5.25;;;3.47;;
75212;SDS011;63798;61.778;34.352;2022-10-26T04:56:53;4.43;;;3.00;;
75212;SDS011;63798;61.778;34.352;2022-10-26T04:59:19;3.45;;;2.67;;
75212;SDS011;63798;61.778;34.352;2022-10-26T05:01:46;4.72;;;2.80;;
75212;SDS011;63798;61.778;34.352;2022-10-26T05:04:22;3.67;;;2.30;;
75212;SDS011;63798;61.778;34.352;2022-10-26T05:06:52;3.85;;;2.30;;
75212;SDS011;63798;61.778;34.352;2022-10-26T05:09:19;3.03;;;2.20;;
75212;SDS011;63798;61.778;34.352;2022-10-26T05:11:47;2.80;;;2.00;;
75212;SDS011;63798;61.778;34.352;2022-10-26T05:16:40;2.33;;;1.38;;
75212;SDS011;63798;61.778;34.352;2022-10-26T05:19:08;1.65;;;1.30;;
75212;SDS011;63798;61.778;34.352;2022-10-26T05:21:37;1.75;;;1.02;;
75212;SDS011;63798;61.778;34.352;2022-10-26T05:24:06;2.25;;;1.10;;
75212;SDS011;63798;61.778;34.352;2022-10-26T05:26:33;1.75;;;0.88;;
75212;SDS011;63798;61.778;34.352;2022-10-26T05:28:59;1.60;;;1.08;;
75212;SDS011;63798;61.778;34.352;2022-10-26T05:34:12;1.55;;;0.75;;
75212;SDS011;63798;61.778;34.352;2022-10-26T05:36:39;1.65;;;0.75;;
75212;SDS011;63798;61.778;34.352;2022-10-26T05:39:07;2.22;;;0.90;;
75212;SDS011;63798;61.778;34.352;2022-10-26T05:41:34;3.53;;;1.20;;
75212;SDS011;63798;61.778;34.352;2022-10-26T05:44:01;1.98;;;0.93;;
75212;SDS011;63798;61.778;34.352;2022-10-26T05:46:28;1.98;;;1.00;;
75212;SDS011;63798;61.778;34.352;2022-10-26T05:48:54;2.17;;;1.05;;
75212;SDS011;63798;61.778;34.352;2022-10-26T05:51:21;2.00;;;1.17;;
75212;SDS011;63798;61.778;34.352;2022-10-26T05:53:50;2.67;;;1.23;;
75212;SDS011;63798;61.778;34.352;2022-10-26T05:56:23;1.80;;;1.30;;
75212;SDS011;63798;61.778;34.352;2022-10-26T05:58:59;2.55;;;1.20;;
75212;SDS011;63798;61.778;34.352;2022-10-26T06:01:27;2.10;;;1.10;;
75212;SDS011;63798;61.778;34.352;2022-10-26T06:03:59;1.90;;;1.40;;
75212;SDS011;63798;61.778;34.352;2022-10-26T06:06:28;2.53;;;1.30;;
75212;SDS011;63798;61.778;34.352;2022-10-26T06:08:58;2.28;;;1.20;;
75212;SDS011;63798;61.778;34.352;2022-10-26T06:11:27;1.92;;;1.30;;
75212;SDS011;63798;61.778;34.352;2022-10-26T06:13:54;1.67;;;1.23;;
75212;SDS011;63798;61.778;34.352;2022-10-26T06:16:27;1.92;;;1.30;;
75212;SDS011;63798;61.778;34.352;2022-10-26T06:19:01;1.55;;;1.13;;
75212;SDS011;63798;61.778;34.352;2022-10-26T06:24:11;3.53;;;1.90;;
75212;SDS011;63798;61.778;34.352;2022-10-26T06:26:43;3.30;;;1.77;;
75212;SDS011;63798;61.778;34.352;2022-10-26T06:29:18;1.60;;;1.30;;
75212;SDS011;63798;61.778;34.352;2022-10-26T06:31:47;2.03;;;1.50;;
75212;SDS011;63798;61.778;34.352;2022-10-26T06:34:16;3.67;;;1.63;;
75212;SDS011;63798;61.778;34.352;2022-10-26T06:36:52;1.95;;;1.50;;
75212;SDS011;63798;61.778;34.352;2022-10-26T06:39:18;2.20;;;1.23;;
75212;SDS011;63798;61.778;34.352;2022-10-26T06:41:47;1.65;;;1.30;;
75212;SDS011;63798;61.778;34.352;2022-10-26T06:44:21;2.10;;;1.40;;
75212;SDS011;63798;61.778;34.352;2022-10-26T06:46:49;3.33;;;1.23;;
75212;SDS011;63798;61.778;34.352;2022-10-26T06:49:18;2.25;;;1.20;;
75212;SDS011;63798;61.778;34.352;2022-10-26T06:51:50;4.07;;;1.30;;
75212;SDS011;63798;61.778;34.352;2022-10-26T06:54:19;1.38;;;1.20;;
75212;SDS011;63798;61.778;34.352;2022-10-26T06:56:50;1.95;;;1.40;;
75212;SDS011;63798;61.778;34.352;2022-10-26T06:59:30;2.25;;;1.23;;
75212;SDS011;63798;61.778;34.352;2022-10-26T07:02:11;2.05;;;1.20;;
75212;SDS011;63798;61.778;34.352;2022-10-26T07:04:38;2.03;;;1.40;;
75212;SDS011;63798;61.778;34.352;2022-10-26T07:07:07;1.25;;;1.00;;
75212;SDS011;63798;61.778;34.352;2022-10-26T07:09:34;2.30;;;1.20;;
75212;SDS011;63798;61.778;34.352;2022-10-26T07:12:02;1.83;;;1.20;;
75212;SDS011;63798;61.778;34.352;2022-10-26T07:14:29;2.05;;;1.35;;
75212;SDS011;63798;61.778;34.352;2022-10-26T07:16:56;2.22;;;1.20;;
75212;SDS011;63798;61.778;34.352;2022-10-26T07:19:23;1.75;;;1.05;;
75212;SDS011;63798;61.778;34.352;2022-10-26T07:21:52;1.58;;;1.10;;
75212;SDS011;63798;61.778;34.352;2022-10-26T07:24:20;1.75;;;0.90;;
75212;SDS011;63798;61.778;34.352;2022-10-26T07:26:47;1.40;;;1.13;;
75212;SDS011;63798;61.778;34.352;2022-10-26T07:29:15;1.58;;;1.00;;
75212;SDS011;63798;61.778;34.352;2022-10-26T07:31:42;1.55;;;1.15;;
75212;SDS011;63798;61.778;34.352;2022-10-26T07:34:09;1.50;;;1.10;;
75212;SDS011;63798;61.778;34.352;2022-10-26T07:36:36;1.40;;;1.10;;
75212;SDS011;63798;61.778;34.352;2022-10-26T07:39:03;1.67;;;1.00;;
75212;SDS011;63798;61.778;34.352;2022-10-26T07:41:30;0.98;;;0.88;;
75212;SDS011;63798;61.778;34.352;2022-10-26T07:43:57;1.05;;;0.95;;
75212;SDS011;63798;61.778;34.352;2022-10-26T07:46:26;1.50;;;1.08;;
75212;SDS011;63798;61.778;34.352;2022-10-26T07:48:53;1.60;;;1.10;;
75212;SDS011;63798;61.778;34.352;2022-10-26T07:51:20;1.30;;;0.95;;
75212;SDS011;63798;61.778;34.352;2022-10-26T07:53:46;1.48;;;1.10;;
75212;SDS011;63798;61.778;34.352;2022-10-26T07:56:13;1.05;;;0.80;;
75212;SDS011;63798;61.778;34.352;2022-10-26T07:58:40;1.52;;;1.02;;
75212;SDS011;63798;61.778;34.352;2022-10-26T08:01:07;1.20;;;1.00;;
75212;SDS011;63798;61.778;34.352;2022-10-26T08:03:36;2.08;;;1.00;;
75212;SDS011;63798;61.778;34.352;2022-10-26T08:06:03;2.13;;;1.13;;
75212;SDS011;63798;61.778;34.352;2022-10-26T08:08:30;1.77;;;1.00;;
75212;SDS011;63798;61.778;34.352;2022-10-26T08:10:57;1.38;;;1.00;;
75212;SDS011;63798;61.778;34.352;2022-10-26T08:15:55;1.30;;;0.90;;
75212;SDS011;63798;61.778;34.352;2022-10-26T08:18:21;1.38;;;1.00;;
75212;SDS011;63798;61.778;34.352;2022-10-26T08:23:29;0.73;;;0.73;;
75212;SDS011;63798;61.778;34.352;2022-10-26T08:25:59;0.90;;;0.77;;
75212;SDS011;63798;61.778;34.352;2022-10-26T08:28:27;1.10;;;0.70;;
75212;SDS011;63798;61.778;34.352;2022-10-26T08:30:57;1.20;;;1.00;;
75212;SDS011;63798;61.778;34.352;2022-10-26T08:33:31;2.22;;;0.93;;
75212;SDS011;63798;61.778;34.352;2022-10-26T08:39:04;5.57;;;1.20;;
75212;SDS011;63798;61.778;34.352;2022-10-26T08:41:57;2.38;;;1.13;;
75212;SDS011;63798;61.778;34.352;2022-10-26T08:44:50;4.55;;;1.40;;
75212;SDS011;63798;61.778;34.352;2022-10-26T08:50:16;2.75;;;1.10;;
75212;SDS011;63798;61.778;34.352;2022-10-26T08:53:07;2.80;;;0.98;;
75212;SDS011;63798;61.778;34.352;2022-10-26T09:01:51;2.83;;;0.90;;
75212;SDS011;63798;61.778;34.352;2022-10-26T09:04:26;3.08;;;1.40;;
75212;SDS011;63798;61.778;34.352;2022-10-26T09:10:00;1.17;;;0.82;;
75212;SDS011;63798;61.778;34.352;2022-10-26T09:12:37;1.90;;;0.90;;
75212;SDS011;63798;61.778;34.352;2022-10-26T09:15:18;3.15;;;1.00;;
75212;SDS011;63798;61.778;34.352;2022-10-26T09:18:25;1.42;;;1.10;;
75212;SDS011;63798;61.778;34.352;2022-10-26T09:22:34;1.55;;;0.98;;
75212;SDS011;63798;61.778;34.352;2022-10-26T09:29:50;1.95;;;0.90;;
75212;SDS011;63798;61.778;34.352;2022-10-26T09:32:37;1.60;;;0.90;;
75212;SDS011;63798;61.778;34.352;2022-10-26T09:35:57;2.08;;;0.90;;
75212;SDS011;63798;61.778;34.352;2022-10-26T09:41:08;1.33;;;0.70;;
75212;SDS011;63798;61.778;34.352;2022-10-26T09:43:38;1.20;;;0.88;;
75212;SDS011;63798;61.778;34.352;2022-10-26T09:46:07;2.35;;;0.95;;
75212;SDS011;63798;61.778;34.352;2022-10-26T09:48:40;1.45;;;0.90;;
75212;SDS011;63798;61.778;34.352;2022-10-26T09:51:14;1.92;;;0.80;;
75212;SDS011;63798;61.778;34.352;2022-10-26T09:53:48;1.30;;;0.80;;
75212;SDS011;63798;61.778;34.352;2022-10-26T09:58:55;1.05;;;0.80;;
75212;SDS011;63798;61.778;34.352;2022-10-26T10:01:29;0.82;;;0.70;;
75212;SDS011;63798;61.778;34.352;2022-10-26T10:04:07;2.03;;;0.90;;
75212;SDS011;63798;61.778;34.352;2022-10-26T10:06:36;1.25;;;0.82;;
75212;SDS011;63798;61.778;34.352;2022-10-26T10:09:04;1.52;;;0.60;;
75212;SDS011;63798;61.778;34.352;2022-10-26T10:11:36;1.30;;;0.90;;
75212;SDS011;63798;61.778;34.352;2022-10-26T10:14:05;2.05;;;0.77;;
75212;SDS011;63798;61.778;34.352;2022-10-26T10:16:32;2.60;;;0.98;;
75212;SDS011;63798;61.778;34.352;2022-10-26T10:19:02;1.63;;;0.77;;
75212;SDS011;63798;61.778;34.352;2022-10-26T10:21:36;1.00;;;0.77;;
75212;SDS011;63798;61.778;34.352;2022-10-26T10:24:04;1.05;;;0.70;;
75212;SDS011;63798;61.778;34.352;2022-10-26T10:26:54;1.65;;;0.82;;
75212;SDS011;63798;61.778;34.352;2022-10-26T10:29:23;1.13;;;0.73;;
75212;SDS011;63798;61.778;34.352;2022-10-26T10:31:54;1.40;;;0.77;;
75212;SDS011;63798;61.778;34.352;2022-10-26T10:34:21;1.20;;;0.80;;
75212;SDS011;63798;61.778;34.352;2022-10-26T10:36:49;1.25;;;0.80;;
75212;SDS011;63798;61.778;34.352;2022-10-26T10:39:30;2.17;;;0.63;;
75212;SDS011;63798;61.778;34.352;2022-10-26T10:42:00;1.23;;;0.80;;
75212;SDS011;63798;61.778;34.352;2022-10-26T10:44:27;1.85;;;0.80;;
75212;SDS011;63798;61.778;34.352;2022-10-26T10:46:58;1.38;;;0.70;;
75212;SDS011;63798;61.778;34.352;2022-10-26T10:49:25;1.17;;;0.77;;
75212;SDS011;63798;61.778;34.352;2022-10-26T10:51:54;1.10;;;0.80;;
75212;SDS011;63798;61.778;34.352;2022-10-26T10:54:22;1.85;;;0.80;;
75212;SDS011;63798;61.778;34.352;2022-10-26T10:56:50;1.38;;;0.68;;
75212;SDS011;63798;61.778;34.352;2022-10-26T10:59:29;1.10;;;0.90;;
75212;SDS011;63798;61.778;34.352;2022-10-26T11:02:02;1.40;;;0.90;;
75212;SDS011;63798;61.778;34.352;2022-10-26T11:04:41;1.20;;;0.70;;
75212;SDS011;63798;61.778;34.352;2022-10-26T11:07:13;1.05;;;0.80;;
75212;SDS011;63798;61.778;34.352;2022-10-26T11:09:40;1.48;;;0.80;;
75212;SDS011;63798;61.778;34.352;2022-10-26T11:12:09;1.00;;;0.63;;
75212;SDS011;63798;61.778;34.352;2022-10-26T11:14:40;0.93;;;0.60;;
75212;SDS011;63798;61.778;34.352;2022-10-26T11:17:10;0.77;;;0.60;;
75212;SDS011;63798;61.778;34.352;2022-10-26T11:19:40;1.73;;;0.90;;
75212;SDS011;63798;61.778;34.352;2022-10-26T11:22:10;1.15;;;0.70;;
75212;SDS011;63798;61.778;34.352;2022-10-26T11:24:41;1.38;;;0.85;;
75212;SDS011;63798;61.778;34.352;2022-10-26T11:27:11;0.90;;;0.70;;
75212;SDS011;63798;61.778;34.352;2022-10-26T11:29:41;1.48;;;0.93;;
75212;SDS011;63798;61.778;34.352;2022-10-26T11:32:12;0.80;;;0.63;;
75212;SDS011;63798;61.778;34.352;2022-10-26T11:34:42;1.05;;;0.70;;
75212;SDS011;63798;61.778;34.352;2022-10-26T11:37:11;0.85;;;0.60;;
75212;SDS011;63798;61.778;34.352;2022-10-26T11:39:43;0.70;;;0.50;;
75212;SDS011;63798;61.778;34.352;2022-10-26T11:42:14;1.35;;;0.80;;
75212;SDS011;63798;61.778;34.352;2022-10-26T11:44:46;0.45;;;0.38;;
75212;SDS011;63798;61.778;34.352;2022-10-26T11:47:15;0.73;;;0.65;;
75212;SDS011;63798;61.778;34.352;2022-10-26T11:49:45;1.00;;;0.70;;
75212;SDS011;63798;61.778;34.352;2022-10-26T11:52:14;1.70;;;0.80;;
75212;SDS011;63798;61.778;34.352;2022-10-26T11:54:48;0.70;;;0.52;;
75212;SDS011;63798;61.778;34.352;2022-10-26T11:57:17;1.20;;;0.60;;
75212;SDS011;63798;61.778;34.352;2022-10-26T12:02:12;0.55;;;0.50;;
75212;SDS011;63798;61.778;34.352;2022-10-26T12:04:40;0.75;;;0.50;;
75212;SDS011;63798;61.778;34.352;2022-10-26T12:07:09;0.70;;;0.57;;
75212;SDS011;63798;61.778;34.352;2022-10-26T12:09:38;0.90;;;0.60;;
75212;SDS011;63798;61.778;34.352;2022-10-26T12:12:10;1.58;;;0.60;;
75212;SDS011;63798;61.778;34.352;2022-10-26T12:14:41;1.00;;;0.65;;
75212;SDS011;63798;61.778;34.352;2022-10-26T12:17:09;0.60;;;0.52;;
75212;SDS011;63798;61.778;34.352;2022-10-26T12:19:40;0.90;;;0.63;;
75212;SDS011;63798;61.778;34.352;2022-10-26T12:22:10;1.10;;;0.52;;
75212;SDS011;63798;61.778;34.352;2022-10-26T12:24:42;1.00;;;0.55;;
75212;SDS011;63798;61.778;34.352;2022-10-26T12:27:28;1.13;;;0.57;;
75212;SDS011;63798;61.778;34.352;2022-10-26T12:30:12;0.70;;;0.47;;
75212;SDS011;63798;61.778;34.352;2022-10-26T12:32:49;0.70;;;0.60;;
75212;SDS011;63798;61.778;34.352;2022-10-26T12:41:06;1.35;;;0.60;;
75212;SDS011;63798;61.778;34.352;2022-10-26T12:43:36;0.57;;;0.45;;
75212;SDS011;63798;61.778;34.352;2022-10-26T12:48:51;0.55;;;0.47;;
75212;SDS011;63798;61.778;34.352;2022-10-26T12:54:01;1.00;;;0.65;;
75212;SDS011;63798;61.778;34.352;2022-10-26T12:56:30;0.65;;;0.50;;
75212;SDS011;63798;61.778;34.352;2022-10-26T12:59:09;0.50;;;0.50;;
75212;SDS011;63798;61.778;34.352;2022-10-26T13:01:42;0.82;;;0.70;;
75212;SDS011;63798;61.778;34.352;2022-10-26T13:07:16;0.55;;;0.50;;
75212;SDS011;63798;61.778;34.352;2022-10-26T13:09:45;0.43;;;0.40;;
75212;SDS011;63798;61.778;34.352;2022-10-26T13:12:14;0.80;;;0.57;;
75212;SDS011;63798;61.778;34.352;2022-10-26T13:14:52;0.50;;;0.50;;
75212;SDS011;63798;61.778;34.352;2022-10-26T13:17:22;0.93;;;0.50;;
75212;SDS011;63798;61.778;34.352;2022-10-26T13:19:49;0.73;;;0.60;;
75212;SDS011;63798;61.778;34.352;2022-10-26T13:22:20;1.48;;;0.68;;
75212;SDS011;63798;61.778;34.352;2022-10-26T13:24:50;1.05;;;0.60;;
75212;SDS011;63798;61.778;34.352;2022-10-26T13:27:22;1.20;;;0.65;;
75212;SDS011;63798;61.778;34.352;2022-10-26T13:32:36;0.73;;;0.43;;
75212;SDS011;63798;61.778;34.352;2022-10-26T13:35:04;0.95;;;0.70;;
75212;SDS011;63798;61.778;34.352;2022-10-26T13:37:32;0.50;;;0.50;;
75212;SDS011;63798;61.778;34.352;2022-10-26T13:40:00;0.88;;;0.50;;
75212;SDS011;63798;61.778;34.352;2022-10-26T13:42:31;0.95;;;0.50;;
75212;SDS011;63798;61.778;34.352;2022-10-26T13:45:00;0.65;;;0.50;;
75212;SDS011;63798;61.778;34.352;2022-10-26T13:47:28;0.93;;;0.50;;
75212;SDS011;63798;61.778;34.352;2022-10-26T13:49:57;0.50;;;0.47;;
75212;SDS011;63798;61.778;34.352;2022-10-26T13:52:26;0.85;;;0.60;;
75212;SDS011;63798;61.778;34.352;2022-10-26T13:54:54;1.15;;;0.50;;
75212;SDS011;63798;61.778;34.352;2022-10-26T13:57:26;1.48;;;0.45;;
75212;SDS011;63798;61.778;34.352;2022-10-26T13:59:54;0.50;;;0.45;;
75212;SDS011;63798;61.778;34.352;2022-10-26T14:02:24;1.17;;;0.60;;
75212;SDS011;63798;61.778;34.352;2022-10-26T14:04:51;1.05;;;0.55;;
75212;SDS011;63798;61.778;34.352;2022-10-26T14:09:52;0.73;;;0.38;;
75212;SDS011;63798;61.778;34.352;2022-10-26T14:12:19;0.50;;;0.40;;
75212;SDS011;63798;61.778;34.352;2022-10-26T14:14:46;0.75;;;0.50;;
75212;SDS011;63798;61.778;34.352;2022-10-26T14:17:17;0.75;;;0.45;;
75212;SDS011;63798;61.778;34.352;2022-10-26T14:19:44;1.77;;;0.52;;
75212;SDS011;63798;61.778;34.352;2022-10-26T14:22:15;0.45;;;0.40;;
75212;SDS011;63798;61.778;34.352;2022-10-26T14:24:48;0.40;;;0.40;;
75212;SDS011;63798;61.778;34.352;2022-10-26T14:27:17;0.95;;;0.50;;
75212;SDS011;63798;61.778;34.352;2022-10-26T14:29:44;0.57;;;0.40;;
75212;SDS011;63798;61.778;34.352;2022-10-26T14:32:25;1.02;;;0.40;;
75212;SDS011;63798;61.778;34.352;2022-10-26T14:34:52;0.63;;;0.50;;
75212;SDS011;63798;61.778;34.352;2022-10-26T14:37:22;0.73;;;0.40;;
75212;SDS011;63798;61.778;34.352;2022-10-26T14:39:51;0.25;;;0.25;;
75212;SDS011;63798;61.778;34.352;2022-10-26T14:42:21;1.60;;;0.50;;
75212;SDS011;63798;61.778;34.352;2022-10-26T14:44:50;1.02;;;0.47;;
75212;SDS011;63798;61.778;34.352;2022-10-26T14:47:19;0.65;;;0.50;;
75212;SDS011;63798;61.778;34.352;2022-10-26T14:49:48;0.60;;;0.50;;
75212;SDS011;63798;61.778;34.352;2022-10-26T14:52:16;0.50;;;0.47;;
75212;SDS011;63798;61.778;34.352;2022-10-26T14:54:55;0.52;;;0.50;;
75212;SDS011;63798;61.778;34.352;2022-10-26T14:57:29;0.65;;;0.50;;
75212;SDS011;63798;61.778;34.352;2022-10-26T15:00:00;0.60;;;0.50;;
75212;SDS011;63798;61.778;34.352;2022-10-26T15:02:27;1.13;;;0.43;;
75212;SDS011;63798;61.778;34.352;2022-10-26T15:04:58;0.52;;;0.40;;
75212;SDS011;63798;61.778;34.352;2022-10-26T15:07:33;1.10;;;0.52;;
75212;SDS011;63798;61.778;34.352;2022-10-26T15:10:00;0.80;;;0.50;;
75212;SDS011;63798;61.778;34.352;2022-10-26T15:12:28;0.40;;;0.40;;
75212;SDS011;63798;61.778;34.352;2022-10-26T15:14:57;0.60;;;0.43;;
75212;SDS011;63798;61.778;34.352;2022-10-26T15:17:29;1.70;;;0.45;;
75212;SDS011;63798;61.778;34.352;2022-10-26T15:20:01;0.73;;;0.38;;
75212;SDS011;63798;61.778;34.352;2022-10-26T15:22:28;0.60;;;0.35;;
75212;SDS011;63798;61.778;34.352;2022-10-26T15:24:55;0.63;;;0.50;;
75212;SDS011;63798;61.778;34.352;2022-10-26T15:27:23;0.73;;;0.40;;
75212;SDS011;63798;61.778;34.352;2022-10-26T15:29:50;0.70;;;0.60;;
75212;SDS011;63798;61.778;34.352;2022-10-26T15:32:26;0.50;;;0.50;;
75212;SDS011;63798;61.778;34.352;2022-10-26T15:37:38;1.00;;;0.60;;
75212;SDS011;63798;61.778;34.352;2022-10-26T15:40:06;0.50;;;0.30;;
75212;SDS011;63798;61.778;34.352;2022-10-26T15:44:59;0.28;;;0.22;;
75212;SDS011;63798;61.778;34.352;2022-10-26T15:47:28;0.68;;;0.30;;
75212;SDS011;63798;61.778;34.352;2022-10-26T15:49:57;0.57;;;0.40;;
75212;SDS011;63798;61.778;34.352;2022-10-26T15:52:23;0.50;;;0.32;;
75212;SDS011;63798;61.778;34.352;2022-10-26T15:54:50;0.80;;;0.40;;
75212;SDS011;63798;61.778;34.352;2022-10-26T15:57:17;1.05;;;0.32;;
75212;SDS011;63798;61.778;34.352;2022-10-26T15:59:43;0.57;;;0.40;;
75212;SDS011;63798;61.778;34.352;2022-10-26T16:02:13;1.05;;;0.47;;